Time;durP1;ratioP1;P1;durP2;ratioP2;P2;SDS_P1;SDS_P2;PMS_P1;PMS_P2;Temp;Humidity;BMP_temperature;BMP_pressure;BME280_temperature;BME280_humidity;BME280_pressure;Samples;Min_cycle;Max_cycle;Signal;HPM_P1;HPM_P2
2022/10/08 00:00:23;;;;;;;0.85;0.85;;;;;;;7.89;65.83;96551.22;6296874;28;20110;-68
2022/10/08 00:03:28;;;;;;;0.90;0.90;;;;;;;7.86;66.23;96559.25;6297824;28;20036;-69
2022/10/08 00:06:32;;;;;;;1.75;1.08;;;;;;;7.90;66.11;96566.03;6296800;28;20037;-69
2022/10/08 00:09:36;;;;;;;1.00;0.90;;;;;;;7.90;66.34;96549.44;6297364;28;20508;-69
2022/10/08 00:12:38;;;;;;;1.02;0.80;;;;;;;7.94;66.30;96553.59;6297362;28;20456;-69
2022/10/08 00:15:40;;;;;;;1.05;0.80;;;;;;;8.03;66.14;96550.41;6296649;28;20202;-69
2022/10/08 00:18:45;;;;;;;0.77;0.75;;;;;;;7.98;66.29;96550.69;6297070;28;20537;-68
2022/10/08 00:21:51;;;;;;;2.05;0.90;;;;;;;7.94;66.69;96545.72;6295413;28;20041;-69
2022/10/08 00:24:54;;;;;;;0.80;0.80;;;;;;;7.96;66.64;96542.09;6296805;28;20075;-69
2022/10/08 00:27:55;;;;;;;0.80;0.80;;;;;;;7.90;67.08;96539.84;6296546;28;20055;-68
2022/10/08 00:31:12;;;;;;;0.60;0.60;;;;;;;7.93;67.12;96534.41;6296884;28;20041;-67
2022/10/08 00:34:19;;;;;;;1.47;0.73;;;;;;;7.82;67.33;96535.03;6296268;28;20444;-69
2022/10/08 00:37:24;;;;;;;0.70;0.70;;;;;;;7.85;67.49;96528.78;6299883;28;20542;-69
2022/10/08 00:40:29;;;;;;;0.70;0.70;;;;;;;8.06;66.77;96532.72;6298650;28;20091;-69
2022/10/08 00:43:39;;;;;;;0.85;0.85;;;;;;;8.01;67.23;96540.03;6296553;28;20071;-69
2022/10/08 00:46:47;;;;;;;0.70;0.70;;;;;;;7.92;67.25;96550.19;6296726;28;20044;-69
2022/10/08 00:49:56;;;;;;;0.80;0.77;;;;;;;7.95;67.44;96547.41;6296698;28;20048;-69
2022/10/08 00:53:04;;;;;;;0.90;0.90;;;;;;;7.86;67.63;96548.78;6296559;28;20036;-69
2022/10/08 00:56:05;;;;;;;0.85;0.50;;;;;;;8.00;67.15;96551.44;6295825;28;20409;-69
2022/10/08 00:59:11;;;;;;;0.77;0.77;;;;;;;8.06;67.07;96555.47;6295839;28;20040;-70
2022/10/08 01:02:15;;;;;;;0.70;0.70;;;;;;;8.03;66.93;96551.25;6296518;28;20044;-68
2022/10/08 01:05:25;;;;;;;0.70;0.70;;;;;;;8.07;66.97;96544.91;6295683;28;20127;-70
2022/10/08 01:09:03;;;;;;;1.48;0.60;;;;;;;7.94;67.51;96536.06;6295316;28;20060;-69
2022/10/08 01:12:27;;;;;;;0.98;0.60;;;;;;;7.72;68.52;96541.75;6296111;28;20040;-69
2022/10/08 01:15:46;;;;;;;3.13;0.98;;;;;;;7.56;68.88;96541.81;6295958;28;20040;-68
2022/10/08 01:19:05;;;;;;;0.77;0.68;;;;;;;7.65;69.00;96530.78;6295007;28;20131;-68
2022/10/08 01:22:23;;;;;;;0.63;0.63;;;;;;;7.71;68.50;96539.22;6294051;28;20049;-68
2022/10/08 01:25:54;;;;;;;1.95;0.50;;;;;;;7.77;68.46;96534.47;6295650;28;20040;-68
2022/10/08 01:29:13;;;;;;;0.60;0.60;;;;;;;7.64;69.02;96539.59;6268776;28;20078;-69
2022/10/08 01:32:25;;;;;;;0.47;0.40;;;;;;;7.78;68.58;96548.41;6295436;28;20149;-68
2022/10/08 01:35:33;;;;;;;0.63;0.60;;;;;;;7.74;68.69;96537.25;6295723;28;20044;-69
2022/10/08 01:38:41;;;;;;;0.50;0.50;;;;;;;7.71;69.10;96544.47;6295563;28;20047;-69
2022/10/08 01:41:51;;;;;;;0.30;0.30;;;;;;;7.68;69.25;96544.66;6295570;28;20082;-69
2022/10/08 01:45:11;;;;;;;0.45;0.45;;;;;;;7.72;69.12;96540.91;6295850;28;20071;-69
2022/10/08 01:48:19;;;;;;;0.77;0.50;;;;;;;7.80;68.79;96549.16;6295554;28;20040;-69
2022/10/08 01:51:29;;;;;;;0.40;0.40;;;;;;;7.74;69.09;96533.81;6294975;28;20054;-69
2022/10/08 01:54:36;;;;;;;0.57;0.52;;;;;;;7.79;68.86;96547.47;6294581;28;20114;-70
2022/10/08 01:57:39;;;;;;;0.57;0.50;;;;;;;7.79;68.93;96544.88;6294916;28;20137;-69
2022/10/08 02:00:48;;;;;;;0.50;0.50;;;;;;;7.84;68.65;96534.94;6295462;28;20494;-69
2022/10/08 02:07:23;;;;;;;0.70;0.68;;;;;;;7.83;68.64;96533.25;6264032;28;20044;-69
2022/10/08 02:10:27;;;;;;;1.20;1.00;;;;;;;7.75;68.92;96531.06;6294547;28;20526;-69
2022/10/08 02:13:29;;;;;;;0.80;0.70;;;;;;;7.73;69.11;96542.56;6294640;28;20059;-68
2022/10/08 02:16:35;;;;;;;0.90;0.80;;;;;;;7.85;69.07;96536.63;6295024;28;20047;-70
2022/10/08 02:20:24;;;;;;;0.50;0.47;;;;;;;7.95;68.55;96532.50;6294436;28;20040;-69
2022/10/08 02:23:39;;;;;;;0.35;0.35;;;;;;;8.03;68.61;96543.38;6217976;28;20132;-69
2022/10/08 02:26:52;;;;;;;0.50;0.38;;;;;;;8.23;67.95;96541.34;6220158;28;20404;-69
2022/10/08 02:30:21;;;;;;;0.43;0.30;;;;;;;8.24;67.43;96532.56;6298212;28;20178;-69
2022/10/08 02:33:35;;;;;;;0.20;0.20;;;;;;;8.42;67.02;96539.31;6298304;28;20426;-69
2022/10/08 02:36:41;;;;;;;0.88;0.40;;;;;;;8.50;66.75;96544.94;6298880;28;20048;-69
2022/10/08 02:40:04;;;;;;;0.32;0.32;;;;;;;8.48;66.87;96552.03;6299460;28;20053;-69
2022/10/08 02:43:15;;;;;;;1.30;0.57;;;;;;;8.58;66.20;96556.72;6297992;28;20438;-70
2022/10/08 02:46:26;;;;;;;1.83;0.32;;;;;;;8.46;66.51;96550.44;6299724;28;20049;-69
2022/10/08 02:49:32;;;;;;;0.40;0.30;;;;;;;8.29;66.71;96554.94;6299193;28;20032;-69
2022/10/08 02:52:38;;;;;;;1.55;0.30;;;;;;;8.16;67.29;96561.00;6298888;28;20044;-69
2022/10/08 02:56:03;;;;;;;0.55;0.40;;;;;;;8.20;67.35;96559.88;6298648;28;20044;-69
2022/10/08 02:59:10;;;;;;;1.00;0.20;;;;;;;8.23;67.31;96564.94;6299283;28;20056;-70
2022/10/08 03:02:21;;;;;;;0.80;0.40;;;;;;;8.48;66.89;96562.53;6298339;28;20048;-70
2022/10/08 03:05:23;;;;;;;0.20;0.20;;;;;;;8.53;66.99;96565.72;6299008;28;20044;-70
2022/10/08 03:08:31;;;;;;;0.20;0.20;;;;;;;8.66;66.45;96575.44;6298741;28;20048;-70
2022/10/08 03:11:33;;;;;;;0.22;0.22;;;;;;;8.95;65.60;96579.72;6298869;28;20037;-70
2022/10/08 03:14:42;;;;;;;0.30;0.30;;;;;;;9.12;64.72;96601.44;6298329;28;20136;-70
2022/10/08 03:17:48;;;;;;;0.25;0.20;;;;;;;9.29;63.24;96616.97;6298439;28;20540;-70
2022/10/08 03:20:54;;;;;;;0.50;0.30;;;;;;;9.33;62.13;96622.84;6298323;28;20052;-69
2022/10/08 03:24:00;;;;;;;0.95;0.38;;;;;;;9.40;59.94;96604.00;6298045;28;20502;-68
2022/10/08 03:27:03;;;;;;;0.57;0.47;;;;;;;9.37;57.67;96614.69;6297720;28;20403;-70
2022/10/08 03:30:05;;;;;;;0.60;0.50;;;;;;;9.39;57.04;96625.91;6299010;28;20139;-71
2022/10/08 03:33:09;;;;;;;1.27;0.98;;;;;;;9.31;57.18;96638.69;6297318;28;20055;-69
2022/10/08 03:36:11;;;;;;;1.33;1.00;;;;;;;9.40;56.78;96635.50;6297739;28;20524;-69
2022/10/08 03:39:13;;;;;;;2.00;1.23;;;;;;;9.45;56.76;96635.19;6298065;28;20628;-69
2022/10/08 03:42:17;;;;;;;1.85;0.70;;;;;;;9.51;56.31;96647.97;6297448;28;20040;-69
2022/10/08 03:45:18;;;;;;;3.95;2.17;;;;;;;9.36;56.45;96634.00;6297702;28;20082;-69
2022/10/08 03:48:21;;;;;;;2.30;0.60;;;;;;;9.32;56.70;96640.41;6296129;28;20044;-69
2022/10/08 03:51:26;;;;;;;0.70;0.70;;;;;;;9.24;56.92;96639.19;6297945;28;20040;-68
2022/10/08 03:54:28;;;;;;;1.58;0.80;;;;;;;9.29;57.15;96637.97;6297518;28;20125;-68
2022/10/08 03:57:30;;;;;;;0.95;0.70;;;;;;;9.43;56.65;96644.97;6297543;28;20051;-69
2022/10/08 04:00:31;;;;;;;1.13;0.70;;;;;;;9.60;56.15;96657.88;6297063;28;20090;-70
2022/10/08 04:03:33;;;;;;;1.05;0.60;;;;;;;9.77;55.65;96654.16;6296949;28;20190;-70
2022/10/08 04:06:46;;;;;;;2.05;0.40;;;;;;;9.78;55.67;96639.22;6297248;28;20048;-69
2022/10/08 04:09:50;;;;;;;1.55;0.73;;;;;;;9.77;55.71;96664.66;6297536;28;20040;-69
2022/10/08 04:12:53;;;;;;;1.13;0.60;;;;;;;9.83;55.25;96661.63;6296869;28;20447;-68
2022/10/08 04:16:11;;;;;;;0.98;0.50;;;;;;;9.98;54.96;96678.16;6297213;28;20182;-69
2022/10/08 04:19:16;;;;;;;0.70;0.70;;;;;;;10.08;54.54;96673.16;6297180;28;20418;-69
2022/10/08 04:22:20;;;;;;;0.80;0.60;;;;;;;10.17;53.91;96683.06;6296019;28;20048;-69
2022/10/08 04:25:25;;;;;;;0.73;0.50;;;;;;;10.20;53.49;96672.34;6297116;28;20032;-68
2022/10/08 04:28:27;;;;;;;0.70;0.70;;;;;;;10.15;53.55;96682.31;6296680;28;20064;-70
2022/10/08 04:31:31;;;;;;;1.65;0.60;;;;;;;10.15;53.71;96692.84;6296616;28;20040;-69
2022/10/08 04:34:34;;;;;;;0.95;0.85;;;;;;;10.20;53.43;96697.81;6295526;28;20040;-69
2022/10/08 04:37:36;;;;;;;1.60;0.70;;;;;;;10.26;53.23;96682.44;6296437;28;20032;-69
2022/10/08 04:40:40;;;;;;;1.40;0.80;;;;;;;10.31;52.86;96696.16;6296574;28;20040;-68
2022/10/08 04:43:45;;;;;;;0.50;0.50;;;;;;;10.50;52.40;96706.31;6296329;28;20123;-69
2022/10/08 04:46:46;;;;;;;1.63;0.60;;;;;;;10.76;51.58;96712.44;6296105;28;20048;-69
2022/10/08 04:49:54;;;;;;;0.60;0.60;;;;;;;10.88;51.27;96712.53;6296405;28;20040;-70
2022/10/08 04:53:00;;;;;;;0.52;0.50;;;;;;;11.09;51.25;96724.22;6296307;28;20370;-69
2022/10/08 04:56:20;;;;;;;0.77;0.60;;;;;;;11.54;50.15;96719.31;6296483;28;20037;-69
2022/10/08 04:59:21;;;;;;;0.50;0.45;;;;;;;11.63;49.42;96723.94;6295981;28;20486;-70
2022/10/08 05:02:28;;;;;;;0.63;0.50;;;;;;;11.90;49.10;96725.56;6296282;28;20048;-70
2022/10/08 05:05:31;;;;;;;1.10;0.65;;;;;;;12.18;48.40;96728.81;6294110;28;20052;-68
2022/10/08 05:08:35;;;;;;;0.57;0.57;;;;;;;12.30;48.05;96739.31;6295726;28;20044;-68
2022/10/08 05:11:37;;;;;;;0.70;0.55;;;;;;;12.36;47.68;96749.41;6295092;28;20049;-68
2022/10/08 05:14:40;;;;;;;1.48;0.40;;;;;;;12.61;47.11;96757.31;6293749;28;20514;-68
2022/10/08 05:17:44;;;;;;;0.47;0.30;;;;;;;12.97;46.43;96758.97;6295906;28;20040;-70
2022/10/08 05:20:46;;;;;;;0.63;0.40;;;;;;;13.21;45.62;96772.06;6295411;28;20059;-69
2022/10/08 05:23:56;;;;;;;0.30;0.30;;;;;;;13.10;45.83;96774.69;6295646;28;20059;-68
2022/10/08 05:26:57;;;;;;;0.50;0.40;;;;;;;13.67;44.99;96757.94;6295577;28;20041;-68
2022/10/08 05:29:59;;;;;;;0.30;0.30;;;;;;;14.83;42.33;96752.91;6295140;28;20094;-68
2022/10/08 05:33:02;;;;;;;;;;;;;;;15.12;41.70;96774.34;6296179;28;20041;-68
2022/10/08 05:36:10;;;;;;;0.30;0.30;;;;;;;14.72;42.04;96776.81;6295860;28;19920;-69
2022/10/08 05:39:13;;;;;;;0.43;0.40;;;;;;;14.40;42.60;96771.50;6294907;28;20049;-69
2022/10/08 05:42:17;;;;;;;1.58;0.40;;;;;;;14.95;42.36;96769.63;6294706;28;20056;-69
2022/10/08 05:45:18;;;;;;;0.30;0.28;;;;;;;18.23;36.39;96763.81;6295194;28;20117;-69
2022/10/08 05:48:22;;;;;;;0.75;0.45;;;;;;;20.31;33.10;96772.97;6293669;28;20056;-70
2022/10/08 05:51:27;;;;;;;0.45;0.30;;;;;;;22.49;29.78;96773.91;6294975;28;20044;-68
2022/10/08 05:54:29;;;;;;;0.85;0.30;;;;;;;23.37;27.73;96788.72;6295269;28;20051;-68
2022/10/08 05:57:35;;;;;;;0.82;0.40;;;;;;;22.82;27.35;96789.81;6295412;28;20044;-69
2022/10/08 06:00:42;;;;;;;1.15;0.70;;;;;;;21.50;29.00;96792.16;6295185;28;20127;-69
2022/10/08 06:03:54;;;;;;;0.73;0.43;;;;;;;23.74;26.59;96808.53;6297289;28;20520;-68
2022/10/08 06:07:00;;;;;;;0.50;0.30;;;;;;;25.96;23.32;96804.34;6300453;28;20040;-68
2022/10/08 06:10:04;;;;;;;0.47;0.22;;;;;;;26.52;22.56;96806.09;6300054;28;20049;-69
2022/10/08 06:13:07;;;;;;;1.13;0.40;;;;;;;26.62;21.95;96801.16;6300285;28;20044;-69
2022/10/08 06:16:12;;;;;;;1.83;0.68;;;;;;;27.00;21.29;96814.13;6299756;28;20429;-69
2022/10/08 06:19:14;;;;;;;1.50;0.20;;;;;;;27.68;20.57;96814.84;6300037;28;20048;-69
2022/10/08 06:22:16;;;;;;;1.25;0.50;;;;;;;26.93;20.80;96802.50;6297693;28;20437;-69
2022/10/08 06:25:20;;;;;;;0.55;0.30;;;;;;;26.57;21.14;96811.72;6298796;28;20040;-69
2022/10/08 06:28:26;;;;;;;0.20;0.20;;;;;;;23.75;24.21;96811.03;6299731;28;20085;-69
2022/10/08 06:31:27;;;;;;;0.52;0.28;;;;;;;21.73;26.63;96804.81;6298592;28;20032;-69
2022/10/08 06:34:31;;;;;;;0.60;0.30;;;;;;;20.97;27.87;96789.97;6298955;28;20079;-69
2022/10/08 06:37:32;;;;;;;1.38;0.30;;;;;;;20.25;28.97;96811.03;6299290;28;20426;-69
2022/10/08 06:40:40;;;;;;;0.77;0.45;;;;;;;22.06;26.98;96812.78;6299668;28;20516;-69
2022/10/08 06:43:42;;;;;;;1.92;0.47;;;;;;;23.64;24.76;96821.38;6298821;28;20087;-69
2022/10/08 06:46:45;;;;;;;0.50;0.40;;;;;;;25.26;22.76;96824.91;6298725;28;20416;-68
2022/10/08 06:49:50;;;;;;;1.02;0.40;;;;;;;24.36;23.40;96818.91;6299189;28;20040;-70
2022/10/08 06:52:51;;;;;;;1.88;0.55;;;;;;;25.42;22.91;96816.56;6299048;28;20039;-68
2022/10/08 06:56:00;;;;;;;1.70;0.68;;;;;;;27.91;20.51;96824.41;6298254;28;20078;-70
2022/10/08 06:59:04;;;;;;;1.35;0.52;;;;;;;28.40;20.11;96817.66;6298737;28;20051;-69
2022/10/08 07:02:07;;;;;;;0.95;0.60;;;;;;;29.33;19.13;96836.19;6298100;28;20389;-69
2022/10/08 07:05:11;;;;;;;1.10;0.60;;;;;;;28.92;19.07;96842.84;6298782;28;20414;-69
2022/10/08 07:08:13;;;;;;;0.82;0.60;;;;;;;28.36;19.76;96832.63;6298745;28;20049;-70
2022/10/08 07:11:17;;;;;;;0.73;0.57;;;;;;;27.86;19.99;96837.75;6297793;28;20071;-68
2022/10/08 07:14:18;;;;;;;1.65;0.63;;;;;;;26.09;21.66;96846.72;6298138;28;20139;-70
2022/10/08 07:17:27;;;;;;;1.08;0.50;;;;;;;24.06;24.05;96839.59;6298565;28;20498;-68
2022/10/08 07:20:31;;;;;;;5.72;0.80;;;;;;;24.09;24.11;96849.13;6298676;28;20123;-69
2022/10/08 07:23:39;;;;;;;1.00;0.50;;;;;;;25.59;22.83;96846.78;6298302;28;20049;-68
2022/10/08 07:26:42;;;;;;;0.93;0.22;;;;;;;26.88;21.09;96860.63;6298452;28;20048;-68
2022/10/08 07:29:44;;;;;;;0.65;0.40;;;;;;;26.48;21.57;96856.09;6297866;28;20079;-69
2022/10/08 07:32:50;;;;;;;0.90;0.50;;;;;;;26.23;21.65;96853.03;6298406;28;20047;-69
2022/10/08 07:35:54;;;;;;;1.17;0.40;;;;;;;25.66;22.37;96857.59;6298413;28;20637;-69
2022/10/08 07:39:00;;;;;;;0.55;0.40;;;;;;;25.34;22.53;96856.28;6297093;28;20045;-69
2022/10/08 07:42:04;;;;;;;0.77;0.50;;;;;;;26.02;22.10;96864.75;6298293;28;20045;-69
2022/10/08 07:45:06;;;;;;;0.63;0.60;;;;;;;26.10;21.77;96864.56;6297833;28;20109;-69
2022/10/08 07:48:07;;;;;;;0.50;0.38;;;;;;;26.03;21.81;96874.50;6297638;28;20351;-69
2022/10/08 07:51:14;;;;;;;0.30;0.30;;;;;;;24.95;22.63;96866.41;6297322;28;20138;-70
2022/10/08 07:54:19;;;;;;;1.10;0.40;;;;;;;24.25;23.65;96864.25;6297839;28;20069;-69
2022/10/08 07:57:20;;;;;;;0.77;0.67;;;;;;;22.96;25.17;96860.69;6296848;28;20211;-68
2022/10/08 08:00:25;;;;;;;0.73;0.60;;;;;;;22.57;26.07;96869.56;6297373;28;20133;-68
2022/10/08 08:03:27;;;;;;;1.27;0.88;;;;;;;21.76;26.74;96860.72;6296883;28;20049;-70
2022/10/08 08:06:32;;;;;;;1.85;1.20;;;;;;;20.87;28.19;96873.06;6297750;28;20127;-70
2022/10/08 08:09:34;;;;;;;1.33;1.00;;;;;;;20.71;29.05;96875.69;6297466;28;20028;-70
2022/10/08 08:12:36;;;;;;;1.65;1.13;;;;;;;20.40;29.13;96878.88;6296874;28;20045;-68
2022/10/08 08:15:37;;;;;;;3.28;1.75;;;;;;;19.43;30.55;96890.59;6296963;28;20040;-69
2022/10/08 08:18:44;;;;;;;2.53;1.10;;;;;;;18.38;32.19;96876.84;6297164;28;20036;-70
2022/10/08 08:21:45;;;;;;;0.88;0.80;;;;;;;17.35;34.24;96885.66;6296969;28;20163;-69
2022/10/08 08:24:49;;;;;;;1.65;0.80;;;;;;;17.95;33.39;96882.78;6296937;28;20043;-69
2022/10/08 08:27:51;;;;;;;1.08;0.75;;;;;;;18.68;32.22;96879.34;6295976;28;20135;-69
2022/10/08 08:31:16;;;;;;;1.27;0.88;;;;;;;18.72;32.08;96902.06;6297015;28;20036;-69
2022/10/08 08:34:23;;;;;;;1.20;1.10;;;;;;;17.54;34.09;96895.44;6296815;28;20040;-69
2022/10/08 08:37:24;;;;;;;2.33;1.08;;;;;;;17.00;35.22;96887.06;6296172;28;20056;-69
2022/10/08 08:40:27;;;;;;;2.88;1.25;;;;;;;17.46;34.86;96898.78;6296655;28;20047;-69
2022/10/08 08:43:29;;;;;;;3.80;2.00;;;;;;;19.13;32.06;96884.66;6294773;28;20051;-69
2022/10/08 08:46:39;;;;;;;2.80;1.60;;;;;;;19.22;32.35;96897.09;6295996;28;20052;-69
2022/10/08 08:49:46;;;;;;;1.08;0.60;;;;;;;19.10;32.12;96900.13;6296284;28;20140;-69
2022/10/08 08:52:53;;;;;;;1.05;0.60;;;;;;;19.01;32.41;96908.06;6296391;28;20040;-69
2022/10/08 08:55:59;;;;;;;2.90;1.52;;;;;;;19.04;32.08;96897.06;6295789;28;20147;-69
2022/10/08 08:59:24;;;;;;;2.63;1.60;;;;;;;19.25;31.85;96893.28;6296108;28;20502;-69
2022/10/08 09:02:34;;;;;;;2.33;1.50;;;;;;;19.32;31.63;96889.00;6295962;28;20040;-69
2022/10/08 09:05:44;;;;;;;1.13;0.80;;;;;;;18.69;32.83;96889.84;6295860;28;20040;-70
2022/10/08 09:09:09;;;;;;;2.88;1.80;;;;;;;18.37;33.20;96893.81;6295936;28;20044;-70
2022/10/08 09:12:15;;;;;;;3.67;1.10;;;;;;;18.38;33.20;96894.66;6295434;28;20399;-70
2022/10/08 09:15:31;;;;;;;2.42;1.40;;;;;;;18.00;33.96;96911.59;6294888;28;20544;-70
2022/10/08 09:18:32;;;;;;;2.45;1.52;;;;;;;17.15;35.25;96903.44;6295460;28;20506;-69
2022/10/08 09:21:34;;;;;;;1.55;1.10;;;;;;;16.39;36.41;96903.16;6295011;28;20040;-69
2022/10/08 09:24:38;;;;;;;1.63;1.15;;;;;;;15.76;37.82;96911.22;6295815;28;20040;-69
2022/10/08 09:27:53;;;;;;;1.52;0.98;;;;;;;15.29;39.00;96910.75;6295765;28;20426;-68
2022/10/08 09:31:30;;;;;;;2.67;1.30;;;;;;;15.04;39.60;96896.88;6295740;28;20139;-70
2022/10/08 09:34:33;;;;;;;1.33;1.23;;;;;;;14.88;39.99;96908.84;6288776;28;20139;-70
2022/10/08 09:37:44;;;;;;;;;;;;;;;14.90;39.75;96917.53;6295375;28;20502;-69
2022/10/08 09:41:06;;;;;;;3.35;2.08;;;;;;;14.35;41.09;96923.63;6293962;28;19993;-72
2022/10/08 09:44:19;;;;;;;2.80;2.10;;;;;;;13.78;42.63;96934.28;6295459;28;20044;-72
2022/10/08 09:47:25;;;;;;;5.38;2.90;;;;;;;13.43;44.97;96941.28;6295455;28;20044;-69
2022/10/08 09:50:30;;;;;;;4.65;3.30;;;;;;;12.40;50.37;96939.16;6294695;28;20049;-69
2022/10/08 09:53:44;;;;;;;5.07;2.70;;;;;;;11.91;52.84;96935.53;6295385;28;20589;-69
2022/10/08 09:56:57;;;;;;;3.88;3.00;;;;;;;12.23;52.28;96937.72;6295124;28;20041;-69
2022/10/08 10:00:05;;;;;;;3.45;1.92;;;;;;;12.72;50.71;96945.63;6294991;28;20048;-69
2022/10/08 10:03:18;;;;;;;1.95;1.50;;;;;;;13.14;49.38;96958.47;6295078;28;20513;-69
2022/10/08 10:06:32;;;;;;;3.15;1.52;;;;;;;13.43;47.29;96954.50;6294885;28;20147;-70
2022/10/08 10:09:49;;;;;;;2.08;1.42;;;;;;;13.53;46.44;96948.50;6295112;28;20040;-70
2022/10/08 10:13:01;;;;;;;3.35;1.80;;;;;;;13.52;46.18;96950.31;6294547;28;20134;-70
2022/10/08 10:16:20;;;;;;;6.57;2.55;;;;;;;13.46;45.92;96945.50;6294869;28;20044;-69
2022/10/08 10:19:31;;;;;;;3.90;1.70;;;;;;;13.54;45.49;96956.34;6294451;28;20446;-68
2022/10/08 10:22:53;;;;;;;1.95;0.90;;;;;;;13.45;45.42;96957.88;6294909;28;20048;-69
2022/10/08 10:26:14;;;;;;;1.40;1.20;;;;;;;13.37;45.68;96956.78;6294288;28;20048;-70
2022/10/08 10:29:19;;;;;;;1.80;1.40;;;;;;;13.24;46.07;96977.94;6294653;28;20041;-70
2022/10/08 10:32:36;;;;;;;1.75;1.42;;;;;;;13.19;46.31;96974.78;6294970;28;20476;-69
2022/10/08 10:35:50;;;;;;;1.95;1.40;;;;;;;13.12;46.51;96974.41;6294199;28;20052;-69
2022/10/08 10:39:01;;;;;;;;;;;;;;;13.22;46.27;96990.44;6294617;28;20051;-68
2022/10/08 10:42:34;;;;;;;3.60;2.28;;;;;;;13.29;46.00;96985.56;6293801;28;19916;-70
2022/10/08 10:45:38;;;;;;;1.90;1.75;;;;;;;13.26;45.62;96984.00;6272910;28;20395;-70
2022/10/08 10:48:44;;;;;;;3.08;2.10;;;;;;;13.14;45.46;96987.53;6294877;28;20416;-70
2022/10/08 10:51:55;;;;;;;3.22;2.10;;;;;;;13.10;45.19;96991.31;6298653;28;20519;-68
2022/10/08 10:55:14;;;;;;;3.35;1.80;;;;;;;13.08;45.29;96987.94;6298688;28;20069;-70
2022/10/08 10:58:42;;;;;;;3.05;2.13;;;;;;;13.01;45.42;96992.84;6298107;28;20141;-68
2022/10/08 11:01:51;;;;;;;2.33;1.70;;;;;;;13.01;44.91;96993.69;6298743;28;20419;-69
2022/10/08 11:05:04;;;;;;;2.17;1.98;;;;;;;13.50;43.66;96998.97;6298951;28;20052;-68
2022/10/08 11:08:25;;;;;;;2.80;1.90;;;;;;;14.58;41.61;96997.75;6299233;28;20124;-69
2022/10/08 11:11:44;;;;;;;3.70;2.30;;;;;;;14.92;40.71;96995.91;6298576;28;20448;-70
2022/10/08 11:15:05;;;;;;;2.05;1.30;;;;;;;14.88;40.63;97004.22;6298719;28;20068;-69
2022/10/08 11:18:19;;;;;;;1.83;1.40;;;;;;;14.78;40.80;97012.91;6298718;28;20045;-69
2022/10/08 11:21:42;;;;;;;1.25;1.15;;;;;;;14.52;41.17;97012.34;6298694;28;20431;-69
2022/10/08 11:24:50;;;;;;;2.38;1.75;;;;;;;14.48;41.10;97012.66;6249564;28;20532;-69
2022/10/08 11:27:54;;;;;;;3.97;2.60;;;;;;;14.80;40.38;97008.34;6248995;28;20349;-68
2022/10/08 11:31:17;;;;;;;3.50;2.95;;;;;;;16.00;38.27;97003.00;6249301;28;20458;-68
2022/10/08 11:34:24;;;;;;;3.63;2.33;;;;;;;17.71;35.28;97018.94;6249011;28;20554;-69
2022/10/08 11:37:38;;;;;;;3.75;2.38;;;;;;;18.48;33.62;97014.50;6248552;28;20467;-70
2022/10/08 11:40:46;;;;;;;2.03;1.83;;;;;;;18.69;33.22;97019.63;6247443;28;20454;-68
2022/10/08 11:43:50;;;;;;;2.47;1.80;;;;;;;19.32;31.89;97010.91;6248185;28;20048;-68
2022/10/08 11:46:52;;;;;;;2.30;1.58;;;;;;;19.61;31.33;97016.03;6248778;28;20053;-69
2022/10/08 11:49:57;;;;;;;2.90;2.10;;;;;;;19.35;31.51;97015.94;6248368;28;20049;-70
2022/10/08 11:53:13;;;;;;;3.85;2.58;;;;;;;19.07;31.98;97018.63;6248050;28;20132;-69
2022/10/08 11:56:20;;;;;;;3.03;2.50;;;;;;;18.89;31.94;97026.59;6248018;28;20093;-69
2022/10/08 11:59:28;;;;;;;1.52;1.35;;;;;;;18.78;32.20;97024.94;6247731;28;20049;-69
2022/10/08 12:02:36;;;;;;;3.70;0.90;;;;;;;18.72;32.51;97025.50;6247260;28;20045;-68
2022/10/08 12:05:44;;;;;;;4.05;1.67;;;;;;;17.85;34.01;97023.88;6247910;28;20060;-68
2022/10/08 12:08:52;;;;;;;3.10;1.42;;;;;;;17.93;33.85;97024.00;6247739;28;20041;-69
2022/10/08 12:12:11;;;;;;;1.70;1.58;;;;;;;17.76;33.85;97038.00;6248545;28;20123;-70
2022/10/08 12:15:26;;;;;;;1.55;1.25;;;;;;;17.57;34.28;97036.16;6247551;28;20084;-69
2022/10/08 12:18:40;;;;;;;1.65;1.05;;;;;;;16.43;36.00;97036.50;6247562;28;20418;-69
2022/10/08 12:21:51;;;;;;;3.17;1.40;;;;;;;15.35;37.97;97044.59;6252790;28;20045;-69
2022/10/08 12:24:57;;;;;;;3.40;2.17;;;;;;;15.14;38.63;97053.31;6296932;28;20186;-68
2022/10/08 12:28:40;;;;;;;3.08;1.63;;;;;;;15.56;38.12;97061.41;6294886;28;20417;-70
2022/10/08 12:32:00;;;;;;;1.48;1.10;;;;;;;15.15;39.22;97070.91;6219834;28;20041;-69
2022/10/08 12:35:05;;;;;;;1.27;1.05;;;;;;;14.54;40.50;97062.50;6226893;28;20042;-69
2022/10/08 12:38:35;;;;;;;1.70;1.60;;;;;;;13.92;41.84;97067.16;6296108;28;20061;-69
2022/10/08 12:41:48;;;;;;;2.85;1.60;;;;;;;13.42;43.24;97076.22;6287998;28;20059;-69
2022/10/08 12:44:57;;;;;;;2.70;1.67;;;;;;;12.74;45.00;97064.34;6296496;28;20139;-70
2022/10/08 12:48:13;;;;;;;3.50;2.85;;;;;;;12.15;46.99;97077.22;6296434;28;20041;-69
2022/10/08 12:52:00;;;;;;;3.38;2.30;;;;;;;11.83;47.43;97083.69;6296279;28;20127;-69
2022/10/08 12:55:05;;;;;;;3.92;2.10;;;;;;;11.50;48.69;97092.03;6284173;28;20131;-69
2022/10/08 12:58:16;;;;;;;2.33;1.52;;;;;;;11.23;49.52;97084.94;6296282;28;20041;-69
2022/10/08 13:01:25;;;;;;;1.58;1.40;;;;;;;10.99;50.27;97082.09;6296002;28;20059;-69
2022/10/08 13:04:31;;;;;;;2.40;1.55;;;;;;;10.80;50.81;97097.34;6294098;28;20048;-70
2022/10/08 13:07:37;;;;;;;2.42;1.50;;;;;;;10.67;51.50;97097.28;6296017;28;20093;-69
2022/10/08 13:10:41;;;;;;;2.72;1.80;;;;;;;10.48;52.13;97100.19;6295170;28;20048;-68
2022/10/08 13:13:48;;;;;;;1.83;1.33;;;;;;;10.24;52.64;97104.25;6295488;28;20045;-68
2022/10/08 13:16:52;;;;;;;1.95;1.50;;;;;;;9.99;53.07;97099.59;6295824;28;20044;-69
2022/10/08 13:20:17;;;;;;;2.47;1.30;;;;;;;9.94;53.40;97117.44;6295628;28;20067;-69
2022/10/08 13:23:35;;;;;;;2.60;1.63;;;;;;;10.00;53.60;97114.44;6294690;28;20041;-69
2022/10/08 13:26:51;;;;;;;2.22;1.70;;;;;;;9.84;54.15;97117.94;6295674;28;20060;-69
2022/10/08 13:29:55;;;;;;;2.40;1.00;;;;;;;9.66;54.49;97119.03;6295371;28;20032;-69
2022/10/08 13:33:10;;;;;;;1.23;1.00;;;;;;;9.58;54.97;97131.75;6294981;28;20055;-69
2022/10/08 13:36:20;;;;;;;2.42;1.25;;;;;;;9.51;54.93;97128.63;6295697;28;20040;-70
2022/10/08 13:39:50;;;;;;;3.00;1.92;;;;;;;9.38;56.04;97127.63;6294801;28;20052;-68
2022/10/08 13:42:54;;;;;;;2.38;1.80;;;;;;;9.29;56.18;97142.09;6288792;28;20048;-69
2022/10/08 13:45:56;;;;;;;2.67;1.73;;;;;;;9.10;56.71;97139.63;6293371;28;20052;-71
2022/10/08 13:48:57;;;;;;;5.75;2.05;;;;;;;8.97;57.40;97155.22;6294417;28;20052;-69
2022/10/08 13:52:04;;;;;;;3.70;2.20;;;;;;;8.94;58.04;97154.50;6295288;28;20040;-68
2022/10/08 13:55:21;;;;;;;3.35;2.30;;;;;;;8.92;57.91;97170.38;6295419;28;20205;-69
2022/10/08 13:58:22;;;;;;;2.17;1.67;;;;;;;8.84;58.23;97169.06;6294985;28;20131;-70
2022/10/08 14:01:26;;;;;;;3.80;1.70;;;;;;;8.78;58.33;97172.88;6278193;28;20054;-70
2022/10/08 14:04:33;;;;;;;4.72;1.85;;;;;;;8.68;58.30;97171.66;6295283;28;20041;-70
2022/10/08 14:07:37;;;;;;;3.72;2.10;;;;;;;8.73;58.08;97185.38;6295317;28;20044;-71
2022/10/08 14:10:40;;;;;;;2.17;1.83;;;;;;;8.63;58.47;97189.41;6294765;28;20044;-70
2022/10/08 14:13:47;;;;;;;2.97;1.63;;;;;;;8.51;58.83;97202.22;6294932;28;20524;-69
2022/10/08 14:16:49;;;;;;;3.78;1.50;;;;;;;8.39;59.00;97199.41;6294305;28;20052;-71
2022/10/08 14:19:53;;;;;;;2.13;1.70;;;;;;;8.29;59.46;97204.19;6294448;28;20045;-70
2022/10/08 14:22:59;;;;;;;2.17;1.67;;;;;;;8.36;59.63;97202.97;6294991;28;20056;-69
2022/10/08 14:26:03;;;;;;;2.65;1.55;;;;;;;8.27;60.02;97199.06;6298481;28;20040;-69
2022/10/08 14:29:04;;;;;;;3.47;2.20;;;;;;;8.27;60.22;97208.69;6298737;28;20464;-70
2022/10/08 14:32:09;;;;;;;2.95;1.80;;;;;;;8.16;60.25;97221.50;6299676;28;20040;-70
2022/10/08 14:35:11;;;;;;;4.80;2.67;;;;;;;8.04;60.39;97213.31;6299507;28;20044;-71
2022/10/08 14:38:12;;;;;;;2.85;2.17;;;;;;;7.99;60.69;97219.69;6299169;28;20118;-70
2022/10/08 14:41:16;;;;;;;4.45;2.38;;;;;;;7.85;60.73;97221.22;6299101;28;20090;-70
2022/10/08 14:44:21;;;;;;;4.20;2.42;;;;;;;7.76;60.91;97231.28;6297373;28;20086;-68
2022/10/08 14:47:27;;;;;;;5.32;2.88;;;;;;;7.78;61.09;97232.91;6299324;28;20123;-70
2022/10/08 14:50:28;;;;;;;;;;;;;;;7.63;60.42;97239.72;6299704;28;20043;-70
2022/10/08 14:53:32;;;;;;;3.58;2.15;;;;;;;7.58;61.23;97243.47;6298094;28;20296;-69